Time;durP1;ratioP1;P1;durP2;ratioP2;P2;SDS_P1;SDS_P2;PMS_P1;PMS_P2;Temp;Humidity;BMP_temperature;BMP_pressure;BME280_temperature;BME280_humidity;BME280_pressure;Samples;Min_cycle;Max_cycle;Signal;HPM_P1;HPM_P2
2024/03/20 00:02:20;;;;;;;16.20;15.00;;;6.90;99.90;;;;;;5002346;28;20223;-79
2024/03/20 00:04:47;;;;;;;15.97;14.77;;;6.90;99.90;;;;;;4995588;28;20308;-79
2024/03/20 00:07:14;;;;;;;17.00;15.50;;;6.90;99.90;;;;;;5002318;28;20215;-79
2024/03/20 00:09:41;;;;;;;17.67;16.27;;;6.80;99.90;;;;;;5005122;28;20231;-79
2024/03/20 00:12:08;;;;;;;18.13;16.73;;;6.80;99.90;;;;;;5001790;28;20216;-78
2024/03/20 00:14:35;;;;;;;18.10;16.57;;;6.80;99.90;;;;;;5002463;28;20224;-79
2024/03/20 00:17:03;;;;;;;18.73;17.03;;;6.80;99.90;;;;;;5000583;28;20214;-79
2024/03/20 00:19:30;;;;;;;18.60;17.10;;;6.80;99.90;;;;;;5005055;28;20642;-79
2024/03/20 00:21:57;;;;;;;18.73;17.13;;;6.70;99.90;;;;;;5000590;28;20228;-79
2024/03/20 00:24:24;;;;;;;18.83;17.37;;;6.80;99.90;;;;;;5001737;28;20290;-79
2024/03/20 00:26:51;;;;;;;18.87;17.37;;;6.80;99.90;;;;;;5003171;28;20205;-79
2024/03/20 00:29:17;;;;;;;19.00;17.50;;;6.70;99.90;;;;;;5002627;28;20675;-79
2024/03/20 00:31:44;;;;;;;18.13;16.73;;;6.70;99.90;;;;;;5003335;28;20227;-79
2024/03/20 00:34:13;;;;;;;16.87;15.57;;;6.60;99.90;;;;;;5009178;28;20247;-79
2024/03/20 00:36:40;;;;;;;17.90;16.50;;;6.50;99.90;;;;;;5005799;28;20572;-78
2024/03/20 00:39:08;;;;;;;17.50;16.20;;;6.50;99.90;;;;;;4999776;28;20200;-79
2024/03/20 00:41:35;;;;;;;18.10;16.70;;;6.40;99.90;;;;;;5003066;28;20219;-79
2024/03/20 00:44:01;;;;;;;17.47;15.97;;;6.40;99.90;;;;;;4998971;28;20216;-79
2024/03/20 00:46:28;;;;;;;17.70;16.27;;;6.40;99.90;;;;;;5008883;28;20200;-79
2024/03/20 00:48:55;;;;;;;17.17;15.87;;;6.40;99.90;;;;;;4998539;28;20674;-79
2024/03/20 00:51:23;;;;;;;17.70;16.10;;;6.30;99.90;;;;;;5002666;28;20319;-79
2024/03/20 00:53:50;;;;;;;17.47;16.07;;;6.30;99.90;;;;;;5005046;28;20195;-79
2024/03/20 00:56:17;;;;;;;17.80;16.50;;;6.30;99.90;;;;;;4999356;28;20249;-79
2024/03/20 00:58:44;;;;;;;17.50;15.80;;;6.20;99.90;;;;;;4996506;28;20264;-79
2024/03/20 01:01:11;;;;;;;16.47;15.27;;;6.10;99.90;;;;;;5000091;28;20239;-79
2024/03/20 01:03:38;;;;;;;17.07;15.70;;;6.10;99.90;;;;;;5012507;28;20230;-78
2024/03/20 01:06:05;;;;;;;17.13;15.83;;;6.00;99.90;;;;;;5002438;28;20495;-79
2024/03/20 01:08:36;;;;;;;17.10;15.80;;;6.00;99.90;;;;;;5001473;28;20207;-79
2024/03/20 01:11:03;;;;;;;16.30;15.00;;;6.00;99.90;;;;;;4998097;28;20302;-79
2024/03/20 01:13:30;;;;;;;17.30;15.90;;;6.00;99.90;;;;;;5002307;28;20238;-79
2024/03/20 01:15:56;;;;;;;17.40;15.93;;;5.90;99.90;;;;;;5002960;28;20227;-79
2024/03/20 01:18:23;;;;;;;16.67;15.47;;;5.90;99.90;;;;;;4998587;28;20671;-79
2024/03/20 01:20:50;;;;;;;16.80;15.43;;;5.90;99.90;;;;;;5002730;28;20664;-79
2024/03/20 01:23:17;;;;;;;17.50;16.10;;;5.90;99.90;;;;;;4998633;28;20219;-79
2024/03/20 01:25:45;;;;;;;17.40;16.00;;;5.90;99.90;;;;;;5000479;28;20212;-79
2024/03/20 01:28:12;;;;;;;16.87;15.63;;;5.80;99.90;;;;;;4997653;28;20246;-79
2024/03/20 01:30:38;;;;;;;17.70;16.30;;;5.80;99.90;;;;;;5003735;28;20223;-79
2024/03/20 01:33:06;;;;;;;17.03;15.70;;;5.80;99.90;;;;;;5005081;28;20659;-79
2024/03/20 01:35:33;;;;;;;16.83;15.53;;;5.80;99.90;;;;;;4995938;28;20208;-78
2024/03/20 01:37:59;;;;;;;17.67;16.17;;;5.80;99.90;;;;;;5000304;28;20227;-79
2024/03/20 01:40:26;;;;;;;16.97;15.77;;;5.80;99.90;;;;;;5005094;28;20731;-79
2024/03/20 01:42:56;;;;;;;17.27;15.97;;;5.70;99.90;;;;;;4997497;28;20242;-79
2024/03/20 01:45:22;;;;;;;16.57;15.20;;;5.70;99.90;;;;;;5005764;28;20209;-79
2024/03/20 01:47:49;;;;;;;17.40;16.10;;;5.60;99.90;;;;;;4995882;28;20202;-79
2024/03/20 01:50:16;;;;;;;17.50;16.07;;;5.60;99.90;;;;;;5005186;28;20217;-79
2024/03/20 01:52:51;;;;;;;17.57;16.17;;;5.60;99.90;;;;;;4995593;28;20217;-79
2024/03/20 01:55:20;;;;;;;16.47;15.27;;;5.60;99.90;;;;;;5013417;28;20206;-79
2024/03/20 01:57:47;;;;;;;17.10;15.73;;;5.50;99.90;;;;;;5001561;28;20233;-79
2024/03/20 02:00:21;;;;;;;17.87;16.47;;;5.50;99.90;;;;;;5000122;28;20195;-78
2024/03/20 02:02:50;;;;;;;17.20;15.83;;;5.50;99.90;;;;;;5001050;28;20242;-79
2024/03/20 02:05:17;;;;;;;17.33;16.00;;;5.50;99.90;;;;;;5000579;28;20197;-79
2024/03/20 02:07:44;;;;;;;17.37;16.00;;;5.50;99.90;;;;;;5009045;28;20213;-79
2024/03/20 02:10:12;;;;;;;17.80;16.50;;;5.40;99.90;;;;;;4996363;28;20211;-79
2024/03/20 02:12:39;;;;;;;18.77;17.30;;;5.50;99.90;;;;;;4998892;28;20249;-79
2024/03/20 02:15:08;;;;;;;17.67;16.47;;;5.50;99.90;;;;;;4995461;28;20205;-79
2024/03/20 02:17:37;;;;;;;17.60;16.33;;;5.50;99.90;;;;;;4999273;28;20205;-79
2024/03/20 02:20:05;;;;;;;17.87;16.60;;;5.50;99.90;;;;;;5000019;28;20654;-79
2024/03/20 02:22:36;;;;;;;19.17;17.60;;;5.50;99.90;;;;;;4996828;28;20305;-79
2024/03/20 02:25:04;;;;;;;18.90;17.40;;;5.50;99.90;;;;;;5000072;28;20567;-79
2024/03/20 02:27:30;;;;;;;17.93;16.60;;;5.60;99.90;;;;;;5013970;28;20197;-79
2024/03/20 02:29:57;;;;;;;18.30;17.00;;;5.60;99.90;;;;;;5001381;28;20206;-79
2024/03/20 02:32:24;;;;;;;20.00;18.20;;;5.60;99.90;;;;;;4998172;28;20320;-79
2024/03/20 02:34:52;;;;;;;18.97;17.47;;;5.60;99.90;;;;;;5001484;28;20304;-79
2024/03/20 02:37:19;;;;;;;19.70;18.17;;;5.60;99.90;;;;;;5000321;28;20218;-79
2024/03/20 02:39:47;;;;;;;19.13;17.63;;;5.60;99.90;;;;;;5003175;28;20203;-79
2024/03/20 02:42:13;;;;;;;18.93;17.43;;;5.60;99.90;;;;;;5006089;28;20216;-79
2024/03/20 02:44:40;;;;;;;19.00;17.60;;;5.70;99.90;;;;;;5007265;28;20611;-79
2024/03/20 02:47:07;;;;;;;18.63;17.20;;;5.70;99.90;;;;;;5009757;28;20804;-79
2024/03/20 02:49:34;;;;;;;18.77;17.37;;;5.80;99.90;;;;;;5010143;28;20208;-79
2024/03/20 02:52:01;;;;;;;19.20;17.70;;;5.80;99.90;;;;;;5002941;28;20721;-79
2024/03/20 02:54:28;;;;;;;18.33;16.97;;;5.80;99.90;;;;;;5006008;28;20202;-79
2024/03/20 02:56:57;;;;;;;18.00;16.60;;;5.80;99.90;;;;;;5011650;28;20202;-79
2024/03/20 02:59:24;;;;;;;18.00;16.60;;;5.80;99.90;;;;;;5020555;28;20200;-79
2024/03/20 03:01:50;;;;;;;18.67;17.13;;;5.80;99.90;;;;;;5010409;28;20238;-79
2024/03/20 03:04:17;;;;;;;17.00;15.77;;;5.80;99.90;;;;;;5005159;28;20196;-79
2024/03/20 03:06:44;;;;;;;17.37;16.17;;;5.70;99.90;;;;;;5008294;28;20230;-79
2024/03/20 03:09:16;;;;;;;17.90;16.60;;;5.70;99.90;;;;;;5002857;28;20826;-79
2024/03/20 03:11:43;;;;;;;18.47;17.00;;;5.60;99.90;;;;;;5013149;28;20241;-79
2024/03/20 03:14:12;;;;;;;17.83;16.50;;;5.60;99.90;;;;;;5001877;28;20651;-79
2024/03/20 03:16:39;;;;;;;18.37;16.93;;;5.50;99.90;;;;;;5007193;28;20282;-79
2024/03/20 03:19:07;;;;;;;18.37;16.97;;;5.50;99.90;;;;;;5007969;28;20194;-79
2024/03/20 03:21:35;;;;;;;18.10;16.80;;;5.40;99.90;;;;;;5004443;28;20211;-79
2024/03/20 03:24:03;;;;;;;18.23;16.90;;;5.50;99.90;;;;;;5006753;28;20633;-79
2024/03/20 03:26:31;;;;;;;17.57;16.33;;;5.40;99.90;;;;;;5002078;28;20293;-79
2024/03/20 03:28:57;;;;;;;18.13;16.83;;;5.50;99.90;;;;;;5006540;28;20231;-79
2024/03/20 03:31:26;;;;;;;17.70;16.40;;;5.50;99.90;;;;;;5010986;28;20719;-79
2024/03/20 03:33:54;;;;;;;18.13;16.77;;;5.50;99.90;;;;;;5011621;28;20210;-79
2024/03/20 03:36:20;;;;;;;18.23;16.80;;;5.40;99.90;;;;;;5004189;28;20257;-79
2024/03/20 03:38:47;;;;;;;17.97;16.57;;;5.40;99.90;;;;;;5007462;28;20237;-79
2024/03/20 03:41:14;;;;;;;17.63;16.30;;;5.40;99.90;;;;;;5002332;28;20318;-81
2024/03/20 03:43:41;;;;;;;17.63;16.43;;;5.40;99.90;;;;;;5016371;28;20198;-78
2024/03/20 03:46:08;;;;;;;17.63;16.30;;;5.50;99.90;;;;;;4998889;28;20225;-79
2024/03/20 03:48:38;;;;;;;18.20;16.77;;;5.40;99.90;;;;;;5007432;28;20205;-78
2024/03/20 03:51:06;;;;;;;19.17;17.67;;;5.30;99.90;;;;;;5006499;28;20222;-79
2024/03/20 03:53:33;;;;;;;18.47;16.83;;;5.40;99.90;;;;;;5003549;28;20209;-81
2024/03/20 03:56:00;;;;;;;18.10;16.57;;;5.40;99.90;;;;;;5013508;28;20240;-80
2024/03/20 03:58:27;;;;;;;19.07;17.57;;;5.30;99.90;;;;;;5016481;28;20208;-78
2024/03/20 04:00:54;;;;;;;18.10;16.60;;;5.30;99.90;;;;;;5006831;28;20198;-81
2024/03/20 04:03:27;;;;;;;16.93;15.73;;;5.20;99.90;;;;;;5008472;28;20222;-81
2024/03/20 04:05:58;;;;;;;17.47;16.17;;;5.20;99.90;;;;;;5016060;28;20251;-81
2024/03/20 04:08:25;;;;;;;17.63;16.17;;;5.10;99.90;;;;;;5007393;28;20210;-81
2024/03/20 04:10:52;;;;;;;17.77;16.50;;;5.00;99.90;;;;;;5012692;28;20210;-81
2024/03/20 04:13:28;;;;;;;17.10;15.90;;;5.00;99.90;;;;;;5004964;28;20224;-80
2024/03/20 04:15:54;;;;;;;17.63;16.33;;;4.90;99.90;;;;;;5014905;28;20197;-81
2024/03/20 04:18:20;;;;;;;17.10;15.53;;;4.80;99.90;;;;;;5011211;28;20188;-79
2024/03/20 04:20:47;;;;;;;17.47;16.03;;;4.80;99.90;;;;;;5015120;28;20241;-80
2024/03/20 04:23:15;;;;;;;17.17;15.67;;;4.70;99.90;;;;;;5009586;28;20911;-80
2024/03/20 04:25:42;;;;;;;17.87;16.47;;;4.70;99.90;;;;;;5005947;28;20209;-81
2024/03/20 04:28:09;;;;;;;17.40;16.10;;;4.70;99.90;;;;;;5009418;28;20571;-81
2024/03/20 04:30:36;;;;;;;16.07;14.87;;;4.70;99.90;;;;;;4997639;28;20201;-80
2024/03/20 04:33:04;;;;;;;16.53;15.10;;;4.70;99.90;;;;;;5004840;28;20291;-81
2024/03/20 04:35:31;;;;;;;17.67;16.17;;;4.70;99.90;;;;;;5008334;28;20205;-78
2024/03/20 04:37:58;;;;;;;17.90;16.47;;;4.70;99.90;;;;;;5004311;28;20579;-78
2024/03/20 04:40:26;;;;;;;16.67;15.47;;;4.70;99.90;;;;;;5008612;28;20267;-79
2024/03/20 04:42:53;;;;;;;17.37;16.07;;;4.80;99.90;;;;;;5004491;28;20217;-79
2024/03/20 04:45:20;;;;;;;17.67;16.37;;;4.80;99.90;;;;;;5011729;28;20205;-78
2024/03/20 04:47:47;;;;;;;17.93;16.53;;;4.90;99.90;;;;;;5019557;28;20619;-79
2024/03/20 04:50:13;;;;;;;18.33;17.10;;;5.00;99.90;;;;;;5004720;28;20208;-79
2024/03/20 04:52:40;;;;;;;19.20;17.70;;;5.00;99.90;;;;;;5000821;28;20222;-78
2024/03/20 04:55:07;;;;;;;17.80;16.60;;;5.10;99.90;;;;;;5006307;28;20206;-78
2024/03/20 04:57:35;;;;;;;17.83;16.63;;;5.00;99.90;;;;;;5017124;28;20237;-79
2024/03/20 05:00:08;;;;;;;18.17;16.87;;;5.00;99.90;;;;;;5004699;28;20205;-78
2024/03/20 05:02:35;;;;;;;18.50;17.10;;;5.00;99.90;;;;;;5000181;28;20709;-77
2024/03/20 05:05:01;;;;;;;19.23;17.73;;;5.00;99.90;;;;;;5001688;28;20190;-78
2024/03/20 05:07:28;;;;;;;18.53;17.23;;;5.00;99.90;;;;;;5000704;28;20268;-79
2024/03/20 05:09:55;;;;;;;18.20;16.90;;;5.10;99.90;;;;;;5000283;28;20788;-79
2024/03/20 05:12:21;;;;;;;19.10;17.67;;;5.10;99.90;;;;;;5006915;28;20833;-80
2024/03/20 05:14:49;;;;;;;19.13;17.73;;;5.10;99.90;;;;;;4997779;28;20207;-79
2024/03/20 05:17:16;;;;;;;17.83;16.57;;;5.10;99.90;;;;;;5005969;28;20204;-78
2024/03/20 05:19:43;;;;;;;18.63;17.23;;;5.00;99.90;;;;;;5008036;28;20211;-78
2024/03/20 05:22:09;;;;;;;18.43;17.13;;;4.90;99.90;;;;;;5003392;28;20245;-78
2024/03/20 05:24:35;;;;;;;18.27;16.97;;;4.90;99.90;;;;;;5006627;28;20220;-79
2024/03/20 05:27:01;;;;;;;19.07;17.63;;;4.90;99.90;;;;;;5007772;28;20200;-79
2024/03/20 05:29:28;;;;;;;18.93;17.53;;;4.90;99.90;;;;;;5003106;28;20254;-78
2024/03/20 05:31:55;;;;;;;17.60;16.27;;;5.00;99.90;;;;;;4999981;28;20579;-78
2024/03/20 05:34:23;;;;;;;17.90;16.70;;;5.00;99.90;;;;;;4999534;28;20220;-79
2024/03/20 05:36:49;;;;;;;18.83;17.20;;;4.90;99.90;;;;;;5021835;28;20715;-78
2024/03/20 05:39:15;;;;;;;19.37;17.97;;;4.90;99.90;;;;;;5006296;28;20200;-78
2024/03/20 05:41:41;;;;;;;18.60;17.40;;;4.90;99.90;;;;;;5006702;28;20250;-78
2024/03/20 05:44:08;;;;;;;17.97;16.80;;;4.90;99.90;;;;;;4999651;28;20199;-78
2024/03/20 05:46:34;;;;;;;19.07;17.67;;;5.00;99.90;;;;;;5004615;28;20226;-78
2024/03/20 05:49:02;;;;;;;19.90;18.50;;;5.00;99.90;;;;;;4996848;28;20253;-78
2024/03/20 05:51:28;;;;;;;20.40;18.67;;;5.00;99.90;;;;;;5003525;28;20634;-79
2024/03/20 05:53:55;;;;;;;19.93;18.43;;;5.10;99.90;;;;;;5005955;28;20197;-79
2024/03/20 05:56:20;;;;;;;19.33;17.93;;;5.10;99.90;;;;;;5001000;28;20290;-78
2024/03/20 05:58:47;;;;;;;18.27;16.97;;;5.10;99.90;;;;;;5005773;28;20231;-78
2024/03/20 06:01:13;;;;;;;18.80;17.40;;;5.20;99.90;;;;;;4997730;28;20198;-78
2024/03/20 06:03:40;;;;;;;18.30;17.00;;;5.20;99.90;;;;;;5004844;28;20257;-78
2024/03/20 06:06:07;;;;;;;18.53;17.23;;;5.30;99.90;;;;;;4996584;28;20261;-78
2024/03/20 06:08:34;;;;;;;18.57;17.27;;;5.50;99.90;;;;;;5004601;28;20609;-78
2024/03/20 06:11:01;;;;;;;19.37;17.97;;;5.60;99.90;;;;;;5005080;28;20198;-79
2024/03/20 06:13:28;;;;;;;18.30;16.90;;;5.70;99.90;;;;;;5001261;28;20218;-79
2024/03/20 06:15:54;;;;;;;18.73;17.37;;;5.90;99.90;;;;;;5004994;28;20289;-78
2024/03/20 06:18:21;;;;;;;18.70;17.40;;;6.10;99.90;;;;;;4999200;28;20395;-78
2024/03/20 06:20:47;;;;;;;18.10;16.90;;;6.40;99.90;;;;;;5005167;28;20269;-78
2024/03/20 06:23:15;;;;;;;18.30;17.00;;;6.60;99.90;;;;;;4999418;28;20211;-78
2024/03/20 06:25:41;;;;;;;17.60;16.40;;;6.90;99.90;;;;;;5002071;28;20270;-79
2024/03/20 06:28:08;;;;;;;16.47;15.37;;;7.00;99.90;;;;;;5022788;28;20199;-78
2024/03/20 06:30:33;;;;;;;16.97;15.87;;;7.20;99.90;;;;;;5004194;28;20215;-78
2024/03/20 06:33:01;;;;;;;15.50;14.53;;;7.40;99.90;;;;;;5003078;28;20609;-78
2024/03/20 06:35:28;;;;;;;15.97;14.97;;;7.60;99.90;;;;;;4998759;28;20638;-78
2024/03/20 06:37:55;;;;;;;17.20;15.80;;;7.80;99.90;;;;;;4997434;28;20232;-78
2024/03/20 06:40:27;;;;;;;15.93;14.83;;;7.80;99.90;;;;;;5004825;28;20205;-79
2024/03/20 06:42:54;;;;;;;14.70;13.50;;;8.10;99.90;;;;;;5007712;28;20220;-78
2024/03/20 06:45:21;;;;;;;15.30;14.20;;;8.30;99.90;;;;;;4999955;28;20212;-78
2024/03/20 06:47:48;;;;;;;15.20;14.20;;;8.50;99.90;;;;;;5003677;28;20200;-78
2024/03/20 06:50:14;;;;;;;14.77;13.87;;;8.70;99.90;;;;;;4997757;28;20204;-78
2024/03/20 06:52:43;;;;;;;13.93;13.03;;;8.80;99.90;;;;;;5001488;28;20229;-79
2024/03/20 06:55:14;;;;;;;17.23;16.03;;;9.00;99.90;;;;;;4999095;28;20280;-78
2024/03/20 06:57:42;;;;;;;12.67;11.37;;;9.20;99.90;;;;;;5001163;28;20229;-78
2024/03/20 07:00:17;;;;;;;14.90;14.00;;;9.30;99.90;;;;;;5003882;28;20220;-78
2024/03/20 07:02:44;;;;;;;15.77;14.70;;;9.40;99.90;;;;;;4999100;28;20639;-78
2024/03/20 07:05:13;;;;;;;15.03;14.13;;;9.60;99.90;;;;;;5004153;28;20221;-79
2024/03/20 07:07:39;;;;;;;14.37;13.57;;;9.70;99.90;;;;;;4997715;28;20206;-78
2024/03/20 07:10:07;;;;;;;13.70;12.70;;;9.80;99.90;;;;;;5001014;28;21356;-78
2024/03/20 07:12:34;;;;;;;12.10;11.20;;;9.80;99.90;;;;;;4996020;28;20234;-78
2024/03/20 07:15:01;;;;;;;10.13;9.43;;;10.00;99.90;;;;;;5000546;28;20210;-78
2024/03/20 07:17:28;;;;;;;9.80;9.10;;;10.30;99.90;;;;;;5002360;28;20226;-78
2024/03/20 07:19:54;;;;;;;10.03;9.33;;;10.50;99.90;;;;;;4997771;28;20211;-79
2024/03/20 07:22:21;;;;;;;10.53;9.73;;;10.80;99.90;;;;;;5008926;28;20642;-79
2024/03/20 07:24:47;;;;;;;10.17;9.47;;;11.00;99.90;;;;;;4996266;28;20211;-78
2024/03/20 07:27:13;;;;;;;10.87;10.17;;;11.10;99.90;;;;;;4991865;28;20200;-79
2024/03/20 07:29:39;;;;;;;13.20;12.37;;;11.40;99.90;;;;;;4996990;28;20672;-79
2024/03/20 07:32:11;;;;;;;11.80;11.00;;;11.60;99.90;;;;;;5001756;28;20231;-79
2024/03/20 07:34:37;;;;;;;12.40;11.20;;;11.80;99.90;;;;;;4998218;28;20217;-79
2024/03/20 07:37:05;;;;;;;14.27;13.27;;;12.00;99.90;;;;;;5003324;28;20197;-79
2024/03/20 07:39:33;;;;;;;13.00;12.10;;;12.50;99.90;;;;;;5009174;28;20215;-79
2024/03/20 07:42:02;;;;;;;7.73;7.13;;;12.60;99.90;;;;;;5002231;28;20217;-79
2024/03/20 07:44:28;;;;;;;13.90;12.80;;;13.00;99.90;;;;;;5005434;28;20197;-79
2024/03/20 07:46:55;;;;;;;11.20;10.30;;;13.30;99.90;;;;;;5006318;28;20620;-79
2024/03/20 07:49:22;;;;;;;11.20;10.33;;;13.50;99.90;;;;;;5000177;28;20202;-79
2024/03/20 07:51:49;;;;;;;9.27;8.57;;;13.90;99.90;;;;;;5007073;28;20222;-79
2024/03/20 07:54:15;;;;;;;11.57;10.57;;;14.30;99.90;;;;;;4997596;28;20568;-79
2024/03/20 07:56:42;;;;;;;13.80;12.80;;;14.40;99.90;;;;;;5004134;28;20195;-79
2024/03/20 07:59:08;;;;;;;13.07;12.27;;;14.70;99.90;;;;;;4997503;28;20206;-80
2024/03/20 08:01:38;;;;;;;13.17;12.17;;;15.10;99.90;;;;;;4999058;28;20274;-80
2024/03/20 08:04:04;;;;;;;12.87;11.97;;;15.10;99.90;;;;;;5008114;28;20189;-79
2024/03/20 08:06:32;;;;;;;13.80;12.90;;;15.10;99.90;;;;;;5005857;28;20243;-80
2024/03/20 08:08:58;;;;;;;12.37;11.50;;;15.20;99.90;;;;;;5004853;28;20675;-80
2024/03/20 08:11:25;;;;;;;12.70;11.80;;;15.20;99.90;;;;;;5010707;28;20304;-79
2024/03/20 08:13:51;;;;;;;13.33;12.37;;;15.20;99.90;;;;;;5003609;28;20247;-80
2024/03/20 08:16:18;;;;;;;12.67;11.73;;;15.10;99.90;;;;;;5006696;28;20216;-79
2024/03/20 08:18:44;;;;;;;13.33;12.43;;;15.10;99.90;;;;;;5012132;28;20208;-80
2024/03/20 08:21:13;;;;;;;13.60;12.50;;;15.50;99.90;;;;;;5001643;28;20251;-80
2024/03/20 08:23:40;;;;;;;13.47;12.53;;;15.80;99.90;;;;;;5000135;28;20634;-79
2024/03/20 08:26:07;;;;;;;13.13;12.33;;;15.80;99.90;;;;;;5003949;28;20208;-80
2024/03/20 08:28:33;;;;;;;13.20;12.27;;;15.60;99.90;;;;;;5001013;28;20201;-79
2024/03/20 08:31:00;;;;;;;12.03;11.23;;;15.70;99.90;;;;;;4995702;28;20618;-81
2024/03/20 08:33:25;;;;;;;11.47;10.77;;;16.10;99.90;;;;;;5003901;28;20256;-79
2024/03/20 08:35:57;;;;;;;11.97;11.17;;;16.40;99.90;;;;;;5011259;28;20189;-80
2024/03/20 08:38:24;;;;;;;11.53;10.73;;;16.50;99.90;;;;;;4997421;28;20197;-80
2024/03/20 08:40:52;;;;;;;12.17;11.33;;;16.70;99.90;;;;;;4999101;28;20220;-80
2024/03/20 08:43:18;;;;;;;12.57;11.67;;;16.90;99.90;;;;;;5003136;28;20227;-83
2024/03/20 08:45:45;;;;;;;13.10;12.10;;;16.90;99.90;;;;;;4999997;28;20202;-81
2024/03/20 08:48:11;;;;;;;11.57;10.80;;;16.30;99.90;;;;;;5014759;28;20669;-82
2024/03/20 08:50:40;;;;;;;11.73;10.93;;;16.70;99.90;;;;;;5002920;28;20209;-82
2024/03/20 08:53:09;;;;;;;12.13;11.10;;;17.10;99.90;;;;;;5012443;28;20225;-83
2024/03/20 08:55:36;;;;;;;12.00;11.20;;;17.30;99.90;;;;;;5015044;28;20212;-82
2024/03/20 08:58:09;;;;;;;12.40;11.53;;;17.40;99.90;;;;;;5012030;28;20225;-82
2024/03/20 09:00:37;;;;;;;12.00;11.10;;;17.60;99.90;;;;;;5002395;28;20210;-82
2024/03/20 09:03:03;;;;;;;11.47;10.67;;;17.70;99.90;;;;;;4999210;28;20224;-82
2024/03/20 09:05:31;;;;;;;11.67;10.87;;;17.80;99.90;;;;;;5006069;28;20195;-80
2024/03/20 09:07:57;;;;;;;11.97;11.07;;;17.80;99.90;;;;;;5001491;28;20206;-79
2024/03/20 09:10:24;;;;;;;12.60;11.70;;;18.00;99.90;;;;;;5004166;28;20226;-82
2024/03/20 09:12:53;;;;;;;11.33;10.53;;;17.70;99.90;;;;;;5009744;28;20220;-82
2024/03/20 09:15:21;;;;;;;11.40;10.60;;;17.40;99.90;;;;;;5006771;28;20227;-81
2024/03/20 09:17:50;;;;;;;11.10;10.30;;;17.40;99.90;;;;;;5012921;28;20668;-81
2024/03/20 09:20:19;;;;;;;12.17;11.27;;;17.70;99.90;;;;;;5003623;28;20287;-81
2024/03/20 09:22:46;;;;;;;11.60;10.70;;;17.70;99.90;;;;;;5000120;28;20231;-82
2024/03/20 09:25:13;;;;;;;12.17;11.37;;;17.70;99.90;;;;;;5011043;28;20238;-82
2024/03/20 09:27:39;;;;;;;11.73;10.93;;;17.80;99.90;;;;;;5001423;28;20193;-81
2024/03/20 09:30:07;;;;;;;10.80;10.10;;;18.00;99.90;;;;;;4998691;28;20192;-82
2024/03/20 09:32:35;;;;;;;11.10;10.30;;;18.20;99.90;;;;;;4999549;28;20244;-82
2024/03/20 09:35:06;;;;;;;11.37;10.57;;;18.10;99.90;;;;;;5000974;28;20208;-82
2024/03/20 09:37:32;;;;;;;11.50;10.70;;;18.20;99.90;;;;;;5002545;28;20196;-82
2024/03/20 09:39:59;;;;;;;11.60;10.80;;;18.40;99.90;;;;;;5008686;28;20204;-81
2024/03/20 09:42:25;;;;;;;11.33;10.63;;;18.20;99.90;;;;;;4994256;28;20236;-82
2024/03/20 09:44:53;;;;;;;11.87;11.00;;;18.10;99.90;;;;;;5000799;28;20230;-82
2024/03/20 09:47:23;;;;;;;12.23;11.33;;;18.10;99.90;;;;;;5007300;28;20485;-82
2024/03/20 09:49:57;;;;;;;12.00;11.20;;;18.00;99.90;;;;;;5001655;28;20560;-82
2024/03/20 09:52:24;;;;;;;11.33;10.53;;;18.30;99.90;;;;;;5010781;28;20694;-82
2024/03/20 09:54:52;;;;;;;11.20;10.50;;;18.70;99.90;;;;;;4999970;28;20682;-82
2024/03/20 09:57:24;;;;;;;11.40;10.60;;;18.60;99.90;;;;;;5003781;28;20208;-82
2024/03/20 09:59:52;;;;;;;10.10;9.40;;;18.70;99.90;;;;;;4998147;28;20284;-82
2024/03/20 10:02:21;;;;;;;10.77;9.93;;;19.00;99.90;;;;;;4993516;28;20213;-82
2024/03/20 10:04:50;;;;;;;10.93;10.23;;;19.20;99.90;;;;;;4998432;28;20219;-81
2024/03/20 10:07:18;;;;;;;11.00;10.20;;;19.20;99.90;;;;;;5001262;28;20359;-82
2024/03/20 10:09:47;;;;;;;10.90;10.10;;;19.40;99.90;;;;;;4994940;28;20236;-82
2024/03/20 10:12:16;;;;;;;11.47;10.57;;;19.30;99.90;;;;;;5015701;28;20814;-81
2024/03/20 10:14:43;;;;;;;11.40;10.70;;;19.30;99.90;;;;;;4997237;28;20227;-81
2024/03/20 10:17:14;;;;;;;11.30;10.60;;;19.20;99.90;;;;;;4997371;28;20228;-81
2024/03/20 10:19:41;;;;;;;10.90;10.10;;;19.20;99.90;;;;;;4995345;28;20197;-81
2024/03/20 10:22:08;;;;;;;10.70;9.97;;;19.20;99.90;;;;;;4993680;28;20213;-81
2024/03/20 10:24:36;;;;;;;12.63;11.63;;;19.00;99.90;;;;;;4997394;28;20635;-78
2024/03/20 10:27:03;;;;;;;12.00;11.10;;;18.90;99.90;;;;;;5012852;28;20207;-78
2024/03/20 10:29:30;;;;;;;11.17;10.47;;;18.70;99.90;;;;;;5006548;28;20193;-78
2024/03/20 10:31:57;;;;;;;10.60;10.00;;;18.40;99.90;;;;;;5000298;28;20225;-78
2024/03/20 10:34:26;;;;;;;11.23;10.53;;;18.30;99.90;;;;;;5006893;28;20218;-78
2024/03/20 10:36:53;;;;;;;10.40;9.70;;;18.30;99.90;;;;;;4997939;28;20297;-78
2024/03/20 10:39:23;;;;;;;10.13;9.33;;;18.40;99.90;;;;;;5002692;28;20228;-78
2024/03/20 10:41:52;;;;;;;10.40;9.70;;;18.40;99.90;;;;;;4995306;28;20233;-78
2024/03/20 10:44:20;;;;;;;10.43;9.73;;;18.30;99.90;;;;;;5004962;28;20777;-78
2024/03/20 10:46:48;;;;;;;10.03;9.33;;;18.30;99.90;;;;;;5001718;28;20296;-78
2024/03/20 10:49:18;;;;;;;9.73;9.03;;;18.30;99.90;;;;;;4993598;28;20209;-77
2024/03/20 10:51:45;;;;;;;9.40;8.80;;;18.30;99.90;;;;;;4998866;28;20222;-78
2024/03/20 10:54:13;;;;;;;9.37;8.67;;;18.20;99.90;;;;;;5004707;28;20570;-78
2024/03/20 10:56:46;;;;;;;9.60;9.00;;;18.30;99.90;;;;;;5000553;28;20194;-78
2024/03/20 10:59:19;;;;;;;10.97;9.97;;;18.10;99.90;;;;;;5006223;28;20201;-78
2024/03/20 11:01:55;;;;;;;11.37;10.47;;;18.00;99.90;;;;;;5001266;28;20228;-77
2024/03/20 11:04:32;;;;;;;17.47;10.90;;;18.10;99.90;;;;;;4998348;28;20192;-78
2024/03/20 11:06:58;;;;;;;11.00;10.10;;;18.10;99.90;;;;;;5003126;28;20209;-77
2024/03/20 11:09:26;;;;;;;10.57;9.77;;;18.20;99.90;;;;;;5001727;28;20203;-78
2024/03/20 11:11:54;;;;;;;10.17;9.37;;;18.20;99.90;;;;;;5004830;28;20216;-78
2024/03/20 11:14:29;;;;;;;10.50;9.80;;;18.20;99.90;;;;;;5017033;28;20219;-77
2024/03/20 11:17:01;;;;;;;10.37;9.57;;;18.20;99.90;;;;;;5005746;28;20224;-78
2024/03/20 11:19:28;;;;;;;10.50;9.80;;;18.30;99.90;;;;;;5017241;28;20223;-78
2024/03/20 11:21:55;;;;;;;10.27;9.57;;;18.30;99.90;;;;;;5005009;28;20217;-77
2024/03/20 11:24:23;;;;;;;10.27;9.57;;;18.30;99.90;;;;;;5007655;28;20201;-77
2024/03/20 11:26:49;;;;;;;9.87;9.27;;;18.20;99.90;;;;;;5006810;28;20816;-77
2024/03/20 11:29:16;;;;;;;9.93;9.33;;;18.30;99.90;;;;;;5005363;28;20204;-78
2024/03/20 11:31:43;;;;;;;10.10;9.40;;;18.40;99.90;;;;;;5015744;28;20216;-77
2024/03/20 11:34:11;;;;;;;10.30;9.60;;;18.40;99.90;;;;;;5003971;28;20256;-78
2024/03/20 11:36:37;;;;;;;10.00;9.40;;;18.40;99.90;;;;;;5008063;28;20675;-77
2024/03/20 11:39:08;;;;;;;9.80;9.20;;;18.50;99.90;;;;;;5010352;28;20184;-78
2024/03/20 11:41:35;;;;;;;9.60;8.90;;;18.50;99.90;;;;;;5015250;28;20217;-78
2024/03/20 11:44:01;;;;;;;9.43;8.83;;;18.60;99.90;;;;;;5009366;28;20239;-77
2024/03/20 11:46:27;;;;;;;9.57;9.00;;;18.60;99.90;;;;;;5009335;28;20263;-77
2024/03/20 11:48:56;;;;;;;9.30;8.70;;;18.70;99.90;;;;;;4995979;28;20308;-78
2024/03/20 11:51:25;;;;;;;9.27;8.70;;;18.80;99.90;;;;;;5006018;28;20725;-77
2024/03/20 11:53:53;;;;;;;10.17;9.47;;;18.90;99.90;;;;;;5001683;28;20295;-77
2024/03/20 11:56:21;;;;;;;10.20;9.40;;;19.10;99.90;;;;;;5005158;28;20219;-77
2024/03/20 11:58:53;;;;;;;9.93;9.30;;;19.10;99.90;;;;;;5003939;28;20193;-78
2024/03/20 12:01:19;;;;;;;9.47;8.77;;;19.10;99.90;;;;;;5002100;28;20320;-78
2024/03/20 12:03:47;;;;;;;9.20;8.60;;;19.10;99.90;;;;;;4999958;28;20189;-79
2024/03/20 12:06:16;;;;;;;8.40;7.90;;;19.10;99.90;;;;;;5012111;28;20250;-77
2024/03/20 12:08:44;;;;;;;9.20;8.60;;;19.20;99.90;;;;;;5002770;28;20255;-78
2024/03/20 12:11:14;;;;;;;8.80;8.20;;;19.40;99.90;;;;;;5003903;28;20194;-78
2024/03/20 12:13:41;;;;;;;8.80;8.30;;;19.60;99.90;;;;;;5005987;28;20217;-77
2024/03/20 12:16:07;;;;;;;9.10;8.50;;;19.60;99.90;;;;;;5002343;28;20232;-77
2024/03/20 12:18:35;;;;;;;8.90;8.33;;;19.50;99.90;;;;;;5008577;28;20184;-77
2024/03/20 12:21:03;;;;;;;8.90;8.30;;;19.30;99.90;;;;;;5001153;28;20239;-78
2024/03/20 12:23:31;;;;;;;9.10;8.50;;;19.30;99.90;;;;;;5003633;28;20213;-77
2024/03/20 12:25:58;;;;;;;8.70;8.10;;;19.40;99.90;;;;;;5012051;28;20741;-77
2024/03/20 12:28:25;;;;;;;8.60;8.10;;;19.60;99.90;;;;;;5003630;28;20205;-77
2024/03/20 12:30:51;;;;;;;8.60;8.10;;;19.70;99.90;;;;;;5005388;28;20232;-78
2024/03/20 12:33:20;;;;;;;8.17;7.67;;;19.70;99.90;;;;;;5000937;28;20245;-78
2024/03/20 12:35:46;;;;;;;8.50;7.90;;;19.90;99.90;;;;;;5013335;28;20198;-77
2024/03/20 12:38:13;;;;;;;8.43;7.93;;;19.80;99.90;;;;;;5001159;28;20268;-77